createdAt,value
2018-02-25T00:00:02.140Z,-2.16
2018-02-25T00:01:02.127Z,-2.12
2018-02-25T00:02:02.143Z,-2.15
2018-02-25T00:03:02.726Z,-2.08
2018-02-25T00:04:02.085Z,-2.32
2018-02-25T00:05:02.078Z,-2.13
2018-02-25T00:06:02.066Z,-2.18
2018-02-25T00:07:02.081Z,-2.19
2018-02-25T00:08:02.029Z,-2.16
2018-02-25T00:09:02.010Z,-2.21
2018-02-25T00:10:02.065Z,-2.18
2018-02-25T00:11:01.982Z,-2.25
2018-02-25T00:12:01.981Z,-2.23
2018-02-25T00:13:01.955Z,-2.25
2018-02-25T00:14:01.922Z,-2.21
2018-02-25T00:15:01.997Z,-2.22
2018-02-25T00:16:01.907Z,-2.22
2018-02-25T00:17:02.705Z,-2.26
2018-02-25T00:18:01.898Z,-2.38
2018-02-25T00:19:01.903Z,-2.32
2018-02-25T00:20:01.832Z,-2.26
2018-02-25T00:21:01.812Z,-2.34
2018-02-25T00:22:01.811Z,-2.34
2018-02-25T00:23:01.779Z,-2.35
2018-02-25T00:24:01.784Z,-2.37
2018-02-25T00:25:02.723Z,-2.40
2018-02-25T00:26:01.732Z,-2.37
2018-02-25T00:27:01.718Z,-2.45
2018-02-25T00:28:01.699Z,-2.40
2018-02-25T00:29:01.682Z,-2.44
2018-02-25T00:30:01.667Z,-2.45
2018-02-25T00:31:01.664Z,-2.48
2018-02-25T00:32:01.639Z,-2.35
2018-02-25T00:33:01.633Z,-2.44
2018-02-25T00:34:01.608Z,-2.44
2018-02-25T00:35:01.603Z,-2.42
2018-02-25T00:36:01.592Z,-2.47
2018-02-25T00:37:01.557Z,-2.45
2018-02-25T00:38:01.541Z,-2.45
2018-02-25T00:39:01.531Z,-2.44
2018-02-25T00:40:01.517Z,-2.45
2018-02-25T00:41:01.534Z,-2.45
2018-02-25T00:42:01.478Z,-2.45
2018-02-25T00:43:01.465Z,-2.52
2018-02-25T00:44:01.443Z,-2.53
2018-02-25T00:45:01.431Z,-2.50
2018-02-25T00:46:01.416Z,-2.50
2018-02-25T00:47:01.426Z,-2.59
2018-02-25T00:48:01.397Z,-2.59
2018-02-25T00:49:01.406Z,-2.56
2018-02-25T00:50:01.396Z,-2.52
2018-02-25T00:51:01.367Z,-2.55
2018-02-25T00:52:01.353Z,-2.59
2018-02-25T00:53:01.316Z,-2.59
2018-02-25T00:54:01.284Z,-2.58
2018-02-25T00:55:01.340Z,-2.60
2018-02-25T00:56:01.272Z,-2.58
2018-02-25T00:57:01.277Z,-2.63
2018-02-25T00:58:01.221Z,-2.55
2018-02-25T00:59:01.236Z,-2.56
2018-02-25T01:00:01.688Z,-2.58
2018-02-25T01:01:01.174Z,-2.63
2018-02-25T01:02:01.156Z,-2.63
2018-02-25T01:03:01.140Z,-2.66
2018-02-25T01:04:01.127Z,-2.62
2018-02-25T01:05:01.117Z,-2.66
2018-02-25T01:06:01.092Z,-2.65
2018-02-25T01:07:01.076Z,-2.70
2018-02-25T01:08:01.062Z,-2.66
2018-02-25T01:09:01.080Z,-2.70
2018-02-25T01:10:01.026Z,-2.65
2018-02-25T01:11:01.012Z,-2.65
2018-02-25T01:12:01.097Z,-2.66
2018-02-25T01:13:01.063Z,-2.66
2018-02-25T01:14:00.969Z,-2.69
2018-02-25T01:15:00.962Z,-2.66
2018-02-25T01:16:00.931Z,-2.69
2018-02-25T01:17:00.915Z,-2.74
2018-02-25T01:18:00.898Z,-2.65
2018-02-25T01:19:00.894Z,-2.66
2018-02-25T01:20:00.863Z,-2.69
2018-02-25T01:21:00.851Z,-2.74
2018-02-25T01:22:00.830Z,-2.86
2018-02-25T01:23:00.816Z,-2.77
2018-02-25T01:24:00.814Z,-2.73
2018-02-25T01:25:00.793Z,-2.71
2018-02-25T01:26:00.767Z,-2.77
2018-02-25T01:27:00.765Z,-2.81
2018-02-25T01:28:00.744Z,-2.80
2018-02-25T01:29:00.719Z,-2.84
2018-02-25T01:30:00.700Z,-2.84
2018-02-25T01:31:00.700Z,-2.81
2018-02-25T01:32:00.685Z,-2.78
2018-02-25T01:33:00.663Z,-2.83
2018-02-25T01:34:00.646Z,-2.84
2018-02-25T01:35:00.633Z,-2.94
2018-02-25T01:36:00.615Z,-2.95
2018-02-25T01:37:00.590Z,-2.86
2018-02-25T01:38:00.579Z,-2.84
2018-02-25T01:39:00.573Z,-2.89
2018-02-25T01:40:00.538Z,-2.91
2018-02-25T01:41:00.524Z,-2.84
2018-02-25T01:42:00.506Z,-2.97
2018-02-25T01:43:00.521Z,-2.97
2018-02-25T01:44:00.484Z,-2.99
2018-02-25T01:45:00.474Z,-2.97
2018-02-25T01:46:00.453Z,-3.01
2018-02-25T01:47:00.427Z,-2.95
2018-02-25T01:48:00.407Z,-2.98
2018-02-25T01:49:00.394Z,-2.98
2018-02-25T01:50:00.385Z,-2.99
2018-02-25T01:51:00.360Z,-2.99
2018-02-25T01:52:00.344Z,-3.04
2018-02-25T01:53:00.334Z,-3.04
2018-02-25T01:54:00.312Z,-3.01
2018-02-25T01:55:00.305Z,-3.04
2018-02-25T01:56:00.279Z,-3.09
2018-02-25T01:57:00.271Z,-3.04
2018-02-25T01:58:00.259Z,-3.02
2018-02-25T01:59:00.246Z,-3.12
2018-02-25T02:00:00.240Z,-3.15
2018-02-25T02:01:00.210Z,-3.16
2018-02-25T02:02:00.187Z,-3.15
2018-02-25T02:03:00.173Z,-3.10
2018-02-25T02:04:00.147Z,-3.17
2018-02-25T02:05:00.130Z,-3.16
2018-02-25T02:06:00.117Z,-3.20
2018-02-25T02:07:00.102Z,-3.16
2018-02-25T02:08:00.085Z,-3.17
2018-02-25T02:09:00.067Z,-3.15
2018-02-25T02:10:00.053Z,-3.19
2018-02-25T02:11:00.054Z,-3.17
2018-02-25T02:12:00.027Z,-3.17
2018-02-25T02:13:00.012Z,-3.17
2018-02-25T02:13:59.994Z,-3.17
2018-02-25T02:14:59.971Z,-3.17
2018-02-25T02:15:59.954Z,-3.22
2018-02-25T02:16:59.960Z,-3.30
2018-02-25T02:17:59.925Z,-3.16
2018-02-25T02:18:59.903Z,-3.20
2018-02-25T02:19:59.909Z,-3.13
2018-02-25T02:20:59.879Z,-3.27
2018-02-25T02:21:59.854Z,-3.19
2018-02-25T02:22:59.844Z,-3.17
2018-02-25T02:23:59.839Z,-3.20
2018-02-25T02:24:59.823Z,-3.15
2018-02-25T02:25:59.800Z,-3.22
2018-02-25T02:26:59.783Z,-3.19
2018-02-25T02:27:59.759Z,-3.25
2018-02-25T02:28:59.767Z,-3.19
2018-02-25T02:29:59.747Z,-3.28
2018-02-25T02:30:59.707Z,-3.28
2018-02-25T02:31:59.691Z,-3.25
2018-02-25T02:32:59.674Z,-3.33
2018-02-25T02:33:59.668Z,-3.31
2018-02-25T02:34:59.666Z,-3.31
2018-02-25T02:35:59.634Z,-3.31
2018-02-25T02:36:59.622Z,-3.27
2018-02-25T02:37:59.589Z,-3.33
2018-02-25T02:38:59.575Z,-3.33
2018-02-25T02:39:59.569Z,-3.28
2018-02-25T02:40:59.538Z,-3.35
2018-02-25T02:41:59.536Z,-3.25
2018-02-25T02:42:59.528Z,-3.28
2018-02-25T02:43:59.490Z,-3.37
2018-02-25T02:44:59.476Z,-3.40
2018-02-25T02:45:59.456Z,-3.31
2018-02-25T02:46:59.445Z,-3.46
2018-02-25T02:47:59.435Z,-3.49
2018-02-25T02:48:59.406Z,-3.41
2018-02-25T02:49:59.395Z,-3.38
2018-02-25T02:50:59.385Z,-3.54
2018-02-25T02:51:59.371Z,-3.44
2018-02-25T02:52:59.338Z,-3.46
2018-02-25T02:53:59.334Z,-3.48
2018-02-25T02:54:59.320Z,-3.49
2018-02-25T02:55:59.299Z,-3.46
2018-02-25T02:56:59.282Z,-3.49
2018-02-25T02:57:59.256Z,-3.49
2018-02-25T02:58:59.245Z,-3.49
2018-02-25T02:59:59.234Z,-3.48
2018-02-25T03:00:59.215Z,-3.46
2018-02-25T03:01:59.205Z,-3.45
2018-02-25T03:02:59.189Z,-3.46
2018-02-25T03:03:59.157Z,-3.49
2018-02-25T03:04:59.149Z,-3.49
2018-02-25T03:05:59.137Z,-3.52
2018-02-25T03:06:59.125Z,-3.49
2018-02-25T03:07:59.104Z,-3.52
2018-02-25T03:08:59.074Z,-3.54
2018-02-25T03:09:59.059Z,-3.54
2018-02-25T03:10:59.042Z,-3.61
2018-02-25T03:11:59.023Z,-3.66
2018-02-25T03:12:59.018Z,-3.52
2018-02-25T03:13:59.002Z,-3.52
2018-02-25T03:14:58.977Z,-3.52
2018-02-25T03:15:58.958Z,-3.58
2018-02-25T03:16:58.954Z,-3.67
2018-02-25T03:17:58.923Z,-3.66
2018-02-25T03:18:58.909Z,-3.63
2018-02-25T03:19:58.903Z,-3.66
2018-02-25T03:20:58.875Z,-3.63
2018-02-25T03:21:58.859Z,-3.66
2018-02-25T03:22:58.857Z,-3.66
2018-02-25T03:23:58.823Z,-3.70
2018-02-25T03:24:58.809Z,-3.66
2018-02-25T03:25:58.815Z,-3.66
2018-02-25T03:26:58.788Z,-3.66
2018-02-25T03:27:58.783Z,-3.64
2018-02-25T03:28:58.755Z,-3.63
2018-02-25T03:29:58.752Z,-3.66
2018-02-25T03:30:58.708Z,-3.63
2018-02-25T03:31:58.692Z,-3.63
2018-02-25T03:32:58.675Z,-3.66
2018-02-25T03:33:58.658Z,-3.63
2018-02-25T03:34:58.641Z,-3.69
2018-02-25T03:35:58.628Z,-3.64
2018-02-25T03:36:58.621Z,-3.67
2018-02-25T03:37:58.593Z,-3.66
2018-02-25T03:38:58.576Z,-3.69
2018-02-25T03:39:58.566Z,-3.64
2018-02-25T03:42:32.606Z,-3.69
2018-02-25T03:43:32.416Z,-3.69
2018-02-25T03:44:32.397Z,-3.72
2018-02-25T03:45:32.381Z,-3.72
2018-02-25T03:46:32.367Z,-3.78
2018-02-25T03:47:32.348Z,-3.77
2018-02-25T03:48:32.334Z,-3.77
2018-02-25T03:49:32.319Z,-3.78
2018-02-25T03:50:32.305Z,-3.86
2018-02-25T03:51:32.282Z,-3.77
2018-02-25T03:52:32.287Z,-3.82
2018-02-25T03:53:32.247Z,-3.78
2018-02-25T03:54:32.243Z,-3.82
2018-02-25T03:55:32.218Z,-3.85
2018-02-25T03:56:32.200Z,-3.82
2018-02-25T03:57:32.181Z,-3.91
2018-02-25T03:58:32.172Z,-3.95
2018-02-25T03:59:32.179Z,-3.96
2018-02-25T04:00:32.129Z,-3.92
2018-02-25T04:01:32.114Z,-3.93
2018-02-25T04:02:32.096Z,-3.91
2018-02-25T04:03:32.090Z,-3.99
2018-02-25T04:04:32.063Z,-3.99
2018-02-25T04:05:32.050Z,-3.95
2018-02-25T04:06:32.042Z,-4.09
2018-02-25T04:07:32.014Z,-4.04
2018-02-25T04:08:31.998Z,-4.03
2018-02-25T04:09:31.979Z,-4.09
2018-02-25T04:10:31.965Z,-4.06
2018-02-25T04:11:31.948Z,-4.12
2018-02-25T04:12:31.930Z,-4.04
2018-02-25T04:13:31.910Z,-4.12
2018-02-25T04:14:31.908Z,-4.09
2018-02-25T04:15:31.883Z,-4.14
2018-02-25T04:16:31.867Z,-4.13
2018-02-25T04:17:31.848Z,-4.13
2018-02-25T04:18:31.830Z,-4.07
2018-02-25T04:19:31.810Z,-4.12
2018-02-25T04:20:31.796Z,-4.13
2018-02-25T04:21:31.778Z,-4.17
2018-02-25T04:22:31.766Z,-4.16
2018-02-25T04:23:31.746Z,-4.24
2018-02-25T04:24:31.729Z,-4.10
2018-02-25T04:25:31.716Z,-4.24
2018-02-25T04:26:31.697Z,-4.21
2018-02-25T04:27:31.689Z,-4.20
2018-02-25T04:28:31.663Z,-4.17
2018-02-25T04:29:31.645Z,-4.20
2018-02-25T04:30:31.633Z,-4.25
2018-02-25T04:31:31.614Z,-4.31
2018-02-25T04:32:31.598Z,-4.25
2018-02-25T04:33:31.582Z,-4.27
2018-02-25T04:34:31.562Z,-4.30
2018-02-25T04:35:31.561Z,-4.32
2018-02-25T04:36:31.542Z,-4.32
2018-02-25T04:37:31.536Z,-4.41
2018-02-25T04:38:31.498Z,-4.32
2018-02-25T04:39:31.476Z,-4.38
2018-02-25T04:40:31.468Z,-4.35
2018-02-25T04:41:31.474Z,-4.42
2018-02-25T04:42:31.434Z,-4.39
2018-02-25T04:43:31.410Z,-4.45
2018-02-25T04:44:31.393Z,-4.38
2018-02-25T04:45:31.384Z,-4.42
2018-02-25T04:46:31.356Z,-4.43
2018-02-25T04:47:31.348Z,-4.39
2018-02-25T04:48:31.327Z,-4.52
2018-02-25T04:49:31.311Z,-4.43
2018-02-25T04:50:31.298Z,-4.38
2018-02-25T04:51:31.275Z,-4.46
2018-02-25T04:52:31.262Z,-4.48
2018-02-25T04:53:31.260Z,-4.49
2018-02-25T04:54:31.223Z,-4.46
2018-02-25T04:55:31.214Z,-4.42
2018-02-25T04:56:31.192Z,-4.57
2018-02-25T04:57:31.174Z,-4.42
2018-02-25T04:58:31.157Z,-4.45
2018-02-25T04:59:31.146Z,-4.41
2018-02-25T05:00:31.119Z,-4.52
2018-02-25T05:01:31.106Z,-4.52
2018-02-25T05:02:31.125Z,-4.59
2018-02-25T05:03:31.070Z,-4.52
2018-02-25T05:04:31.055Z,-4.52
2018-02-25T05:05:31.037Z,-4.43
2018-02-25T05:06:31.019Z,-4.41
2018-02-25T05:07:31.004Z,-4.49
2018-02-25T05:08:30.988Z,-4.48
2018-02-25T05:09:30.967Z,-4.57
2018-02-25T05:10:30.958Z,-4.48
2018-02-25T05:11:30.938Z,-4.59
2018-02-25T05:12:30.921Z,-4.52
2018-02-25T05:13:30.900Z,-4.60
2018-02-25T05:14:30.887Z,-4.53
2018-02-25T05:15:30.870Z,-4.57
2018-02-25T05:16:30.848Z,-4.49
2018-02-25T05:17:30.831Z,-4.57
2018-02-25T05:18:30.816Z,-4.57
2018-02-25T05:19:30.799Z,-4.53
2018-02-25T05:20:30.782Z,-4.59
2018-02-25T05:21:30.778Z,-4.53
2018-02-25T05:22:30.799Z,-4.57
2018-02-25T05:23:30.734Z,-4.57
2018-02-25T05:24:30.710Z,-4.66
2018-02-25T05:25:30.696Z,-4.60
2018-02-25T05:26:30.679Z,-4.67
2018-02-25T05:27:30.667Z,-4.64
2018-02-25T05:28:30.642Z,-4.67
2018-02-25T05:29:30.627Z,-4.70
2018-02-25T05:30:30.625Z,-4.64
2018-02-25T05:31:30.603Z,-4.66
2018-02-25T05:32:30.575Z,-4.66
2018-02-25T05:33:30.562Z,-4.70
2018-02-25T05:34:30.544Z,-4.70
2018-02-25T05:35:30.530Z,-4.63
2018-02-25T05:36:30.517Z,-4.69
2018-02-25T05:37:30.494Z,-4.64
2018-02-25T05:38:30.480Z,-4.73
2018-02-25T05:39:30.467Z,-4.71
2018-02-25T05:40:30.440Z,-4.70
2018-02-25T05:41:30.424Z,-4.75
2018-02-25T05:42:30.407Z,-4.70
2018-02-25T05:43:30.400Z,-4.71
2018-02-25T05:44:30.369Z,-4.67
2018-02-25T05:45:30.353Z,-4.70
2018-02-25T05:46:30.339Z,-4.71
2018-02-25T05:47:30.319Z,-4.81
2018-02-25T05:48:30.313Z,-4.82
2018-02-25T05:49:30.285Z,-4.84
2018-02-25T05:50:30.272Z,-4.77
2018-02-25T05:51:30.249Z,-4.77
2018-02-25T05:52:30.242Z,-4.79
2018-02-25T05:53:30.223Z,-4.82
2018-02-25T05:54:30.197Z,-4.79
2018-02-25T05:55:30.183Z,-4.79
2018-02-25T05:56:30.167Z,-4.81
2018-02-25T05:57:30.146Z,-4.84
2018-02-25T05:58:30.152Z,-4.82
2018-02-25T05:59:30.114Z,-4.75
2018-02-25T06:00:30.100Z,-4.85
2018-02-25T06:01:30.078Z,-4.77
2018-02-25T06:02:30.066Z,-4.81
2018-02-25T06:03:30.062Z,-4.78
2018-02-25T06:04:30.032Z,-4.77
2018-02-25T06:05:30.018Z,-4.79
2018-02-25T06:06:30.035Z,-4.88
2018-02-25T06:07:29.979Z,-4.82
2018-02-25T06:08:29.957Z,-4.89
2018-02-25T06:09:29.940Z,-4.88
2018-02-25T06:10:29.938Z,-4.91
2018-02-25T06:11:29.920Z,-4.91
2018-02-25T06:12:29.914Z,-4.89
2018-02-25T06:13:29.872Z,-4.92
2018-02-25T06:14:29.862Z,-4.96
2018-02-25T06:15:29.852Z,-4.91
2018-02-25T06:16:29.827Z,-4.91
2018-02-25T06:17:29.803Z,-4.84
2018-02-25T06:18:29.789Z,-4.87
2018-02-25T06:19:29.794Z,-4.87
2018-02-25T06:20:29.770Z,-4.96
2018-02-25T06:21:29.747Z,-4.98
2018-02-25T06:22:29.716Z,-4.89
2018-02-25T06:23:29.700Z,-4.99
2018-02-25T06:24:29.695Z,-4.98
2018-02-25T06:25:29.667Z,-4.88
2018-02-25T06:26:29.651Z,-4.87
2018-02-25T06:27:29.638Z,-4.96
2018-02-25T06:28:29.611Z,-4.89
2018-02-25T06:29:29.598Z,-4.96
2018-02-25T06:30:29.602Z,-4.88
2018-02-25T06:31:29.562Z,-4.95
2018-02-25T06:32:30.152Z,-4.96
2018-02-25T06:33:29.532Z,-4.95
2018-02-25T06:34:29.511Z,-5.00
2018-02-25T06:35:29.492Z,-4.89
2018-02-25T06:36:29.475Z,-4.91
2018-02-25T06:37:29.458Z,-4.92
2018-02-25T06:38:29.442Z,-4.88
2018-02-25T06:39:29.424Z,-4.88
2018-02-25T06:40:29.405Z,-4.89
2018-02-25T06:41:29.400Z,-4.88
2018-02-25T06:42:29.395Z,-4.89
2018-02-25T06:43:29.354Z,-4.88
2018-02-25T06:44:29.339Z,-4.81
2018-02-25T06:45:29.321Z,-4.79
2018-02-25T06:46:29.300Z,-4.88
2018-02-25T06:47:29.285Z,-4.85
2018-02-25T06:48:29.267Z,-4.73
2018-02-25T06:49:29.253Z,-4.78
2018-02-25T06:50:29.240Z,-4.77
2018-02-25T06:51:29.218Z,-4.81
2018-02-25T06:52:29.202Z,-4.78
2018-02-25T06:53:29.180Z,-4.77
2018-02-25T06:54:29.172Z,-4.71
2018-02-25T06:55:29.152Z,-4.75
2018-02-25T06:56:29.137Z,-4.67
2018-02-25T06:57:29.112Z,-4.63
2018-02-25T06:58:29.097Z,-4.69
2018-02-25T06:59:29.081Z,-4.67
2018-02-25T07:00:29.061Z,-4.57
2018-02-25T07:01:29.047Z,-4.50
2018-02-25T07:02:29.036Z,-4.61
2018-02-25T07:03:29.027Z,-4.43
2018-02-25T07:04:28.999Z,-4.46
2018-02-25T07:05:28.979Z,-4.52
2018-02-25T07:06:28.962Z,-4.39
2018-02-25T07:07:28.942Z,-4.42
2018-02-25T07:08:28.927Z,-4.41
2018-02-25T07:09:28.912Z,-4.45
2018-02-25T07:10:28.893Z,-4.48
2018-02-25T07:11:28.876Z,-4.46
2018-02-25T07:12:28.861Z,-4.45
2018-02-25T07:13:28.846Z,-4.34
2018-02-25T07:14:28.834Z,-4.32
2018-02-25T07:15:28.814Z,-4.31
2018-02-25T07:16:28.819Z,-4.30
2018-02-25T07:17:28.784Z,-4.31
2018-02-25T07:18:28.769Z,-4.32
2018-02-25T07:19:28.749Z,-4.32
2018-02-25T07:20:28.740Z,-4.30
2018-02-25T07:21:28.713Z,-4.31
2018-02-25T07:22:28.699Z,-4.30
2018-02-25T07:23:28.677Z,-4.31
2018-02-25T07:24:28.671Z,-4.30
2018-02-25T07:25:28.652Z,-4.20
2018-02-25T07:26:28.636Z,-4.21
2018-02-25T07:27:28.620Z,-4.22
2018-02-25T07:28:28.599Z,-4.12
2018-02-25T07:29:28.586Z,-4.17
2018-02-25T07:30:28.568Z,-4.03
2018-02-25T07:31:28.552Z,-4.06
2018-02-25T07:32:28.534Z,-4.10
2018-02-25T07:33:28.519Z,-4.07
2018-02-25T07:34:28.515Z,-4.09
2018-02-25T07:35:28.489Z,-4.07
2018-02-25T07:36:28.471Z,-4.03
2018-02-25T07:37:28.459Z,-3.99
2018-02-25T07:38:28.448Z,-4.07
2018-02-25T07:39:28.453Z,-4.04
2018-02-25T07:40:28.403Z,-3.95
2018-02-25T07:41:28.394Z,-3.96
2018-02-25T07:42:28.427Z,-3.88
2018-02-25T07:43:28.352Z,-3.91
2018-02-25T07:44:28.340Z,-3.92
2018-02-25T07:45:28.324Z,-3.82
2018-02-25T07:46:28.329Z,-3.77
2018-02-25T07:47:28.330Z,-3.80
2018-02-25T07:48:28.279Z,-3.91
2018-02-25T07:49:28.256Z,-3.89
2018-02-25T07:50:28.245Z,-3.78
2018-02-25T07:51:28.275Z,-3.74
2018-02-25T07:52:28.211Z,-3.77
2018-02-25T07:53:28.197Z,-3.72
2018-02-25T07:54:28.177Z,-3.75
2018-02-25T07:55:28.164Z,-3.64
2018-02-25T07:56:28.160Z,-3.66
2018-02-25T07:57:28.133Z,-3.69
2018-02-25T07:58:28.117Z,-3.59
2018-02-25T07:59:28.110Z,-3.55
2018-02-25T08:00:28.082Z,-3.48
2018-02-25T08:01:28.066Z,-3.56
2018-02-25T08:02:28.052Z,-3.51
2018-02-25T08:03:28.042Z,-3.46
2018-02-25T08:04:28.023Z,-3.44
2018-02-25T08:05:28.012Z,-3.41
2018-02-25T08:06:27.993Z,-3.37
2018-02-25T08:07:27.975Z,-3.33
2018-02-25T08:08:27.962Z,-3.27
2018-02-25T08:09:27.944Z,-3.25
2018-02-25T08:10:27.932Z,-3.20
2018-02-25T08:11:27.907Z,-3.19
2018-02-25T08:12:27.893Z,-3.33
2018-02-25T08:13:27.880Z,-3.27
2018-02-25T08:14:27.862Z,-3.31
2018-02-25T08:15:27.851Z,-3.35
2018-02-25T08:16:27.837Z,-3.48
2018-02-25T08:17:27.854Z,-3.45
2018-02-25T08:18:27.808Z,-3.44
2018-02-25T08:19:27.789Z,-3.30
2018-02-25T08:20:27.774Z,-3.35
2018-02-25T08:21:27.779Z,-3.16
2018-02-25T08:22:27.746Z,-3.23
2018-02-25T08:23:27.734Z,-3.19
2018-02-25T08:24:27.708Z,-3.30
2018-02-25T08:25:27.701Z,-3.25
2018-02-25T08:26:27.678Z,-3.23
2018-02-25T08:27:27.682Z,-3.22
2018-02-25T08:28:27.651Z,-3.33
2018-02-25T08:29:27.631Z,-3.33
2018-02-25T08:30:27.632Z,-3.31
2018-02-25T08:31:27.600Z,-3.19
2018-02-25T08:32:27.589Z,-3.19
2018-02-25T08:33:27.566Z,-3.23
2018-02-25T08:34:27.589Z,-3.19
2018-02-25T08:35:27.655Z,-3.20
2018-02-25T08:36:27.525Z,-3.02
2018-02-25T08:37:27.508Z,-3.01
2018-02-25T08:38:28.176Z,-3.01
2018-02-25T08:39:27.521Z,-3.01
2018-02-25T08:40:27.467Z,-2.95
2018-02-25T08:41:27.448Z,-2.84
2018-02-25T08:42:27.428Z,-2.74
2018-02-25T08:43:28.385Z,-2.89
2018-02-25T08:44:29.341Z,-2.86
2018-02-25T08:45:27.485Z,-2.95
2018-02-25T08:46:27.385Z,-2.84
2018-02-25T08:47:27.356Z,-2.91
2018-02-25T08:48:27.349Z,-3.02
2018-02-25T08:49:27.327Z,-2.94
2018-02-25T08:50:27.310Z,-2.86
2018-02-25T08:51:27.298Z,-2.80
2018-02-25T08:52:27.285Z,-2.73
2018-02-25T08:53:27.273Z,-2.52
2018-02-25T08:54:27.255Z,-2.60
2018-02-25T08:55:27.244Z,-2.52
2018-02-25T08:56:27.222Z,-2.63
2018-02-25T08:57:27.213Z,-2.59
2018-02-25T08:58:27.198Z,-2.59
2018-02-25T08:59:27.184Z,-2.44
2018-02-25T09:00:27.168Z,-2.40
2018-02-25T09:01:27.177Z,-2.12
2018-02-25T09:02:27.142Z,-1.97
2018-02-25T09:03:27.133Z,-1.95
2018-02-25T09:04:27.118Z,-1.89
2018-02-25T09:05:27.139Z,-1.77
2018-02-25T09:06:27.099Z,-1.47
2018-02-25T09:07:27.075Z,-1.30
2018-02-25T09:08:27.074Z,-1.26
2018-02-25T09:09:27.101Z,-1.32
2018-02-25T09:10:27.041Z,-1.30
2018-02-25T09:11:27.024Z,-1.14
2018-02-25T09:12:27.025Z,-0.93
2018-02-25T09:13:27.002Z,-0.74
2018-02-25T09:14:26.993Z,-0.38
2018-02-25T09:15:26.988Z,-0.07
2018-02-25T09:16:26.966Z,0.21
2018-02-25T09:17:26.958Z,0.59
2018-02-25T09:18:26.956Z,0.78
2018-02-25T09:19:26.935Z,0.69
2018-02-25T09:20:26.925Z,0.70
2018-02-25T09:21:26.920Z,0.58
2018-02-25T09:22:26.905Z,0.29
2018-02-25T09:23:26.895Z,0.36
2018-02-25T09:24:26.887Z,0.25
2018-02-25T09:25:26.874Z,0.43
2018-02-25T09:26:26.863Z,0.78
2018-02-25T09:27:26.862Z,0.70
2018-02-25T09:28:26.844Z,0.69
2018-02-25T09:29:26.836Z,1.05
2018-02-25T09:30:26.831Z,1.63
2018-02-25T09:31:26.817Z,1.94
2018-02-25T09:32:26.812Z,2.11
2018-02-25T09:33:26.802Z,2.10
2018-02-25T09:34:26.796Z,2.08
2018-02-25T09:35:26.787Z,2.08
2018-02-25T09:36:26.770Z,1.97
2018-02-25T09:37:26.765Z,2.06
2018-02-25T09:38:26.759Z,2.13
2018-02-25T09:39:26.747Z,2.13
2018-02-25T09:40:26.747Z,2.38
2018-02-25T09:41:26.746Z,1.73
2018-02-25T09:42:26.735Z,1.42
2018-02-25T09:43:26.723Z,1.58
2018-02-25T09:44:26.714Z,0.99
2018-02-25T09:45:26.710Z,1.17
2018-02-25T09:46:26.701Z,0.91
2018-02-25T09:47:26.691Z,0.66
2018-02-25T09:48:26.686Z,0.41
2018-02-25T09:49:26.745Z,-0.02
2018-02-25T09:50:26.673Z,-0.02
2018-02-25T09:51:26.663Z,-0.17
2018-02-25T09:52:26.661Z,-0.10
2018-02-25T09:53:26.653Z,0.08
2018-02-25T09:54:26.643Z,0.36
2018-02-25T09:55:26.639Z,0.83
2018-02-25T09:56:26.644Z,0.84
2018-02-25T09:57:26.623Z,0.87
2018-02-25T09:58:26.613Z,0.99
2018-02-25T09:59:26.619Z,1.01
2018-02-25T10:00:26.623Z,1.02
2018-02-25T10:01:26.593Z,1.31
2018-02-25T10:02:26.585Z,1.37
2018-02-25T10:03:26.585Z,1.56
2018-02-25T10:04:26.597Z,1.59
2018-02-25T10:05:26.571Z,1.28
2018-02-25T10:06:26.574Z,1.24
2018-02-25T10:07:26.594Z,1.20
2018-02-25T10:08:26.560Z,0.92
2018-02-25T10:09:26.532Z,0.81
2018-02-25T10:10:26.528Z,0.86
2018-02-25T10:11:26.531Z,0.70
2018-02-25T10:12:26.512Z,0.66
2018-02-25T10:13:26.529Z,0.73
2018-02-25T10:14:26.500Z,0.62
2018-02-25T10:15:26.497Z,0.76
2018-02-25T10:16:26.484Z,0.86
2018-02-25T10:17:26.485Z,0.68
2018-02-25T10:18:26.485Z,0.34
2018-02-25T10:19:26.492Z,0.03
2018-02-25T10:20:26.460Z,0.19
2018-02-25T10:21:26.468Z,0.49
2018-02-25T10:22:26.446Z,0.36
2018-02-25T10:23:26.449Z,0.34
2018-02-25T10:24:26.435Z,0.37
2018-02-25T10:25:26.429Z,0.58
2018-02-25T10:26:26.467Z,0.86
2018-02-25T10:27:26.418Z,1.14
2018-02-25T10:28:26.405Z,0.92
2018-02-25T10:29:26.402Z,0.91
2018-02-25T10:30:26.401Z,1.06
2018-02-25T10:31:26.404Z,1.16
2018-02-25T10:32:26.383Z,1.17
2018-02-25T10:33:26.384Z,1.13
2018-02-25T10:34:26.373Z,1.06
2018-02-25T10:35:26.376Z,0.99
2018-02-25T10:36:26.353Z,1.05
2018-02-25T10:37:26.355Z,0.86
2018-02-25T10:38:26.347Z,0.77
2018-02-25T10:39:26.348Z,0.66
2018-02-25T10:40:26.386Z,0.70
2018-02-25T10:41:26.330Z,0.80
2018-02-25T10:42:26.324Z,1.17
2018-02-25T10:43:26.313Z,1.23
2018-02-25T10:44:26.308Z,1.20
2018-02-25T10:45:26.308Z,0.94
2018-02-25T10:46:26.296Z,0.66
2018-02-25T10:47:26.293Z,0.68
2018-02-25T10:48:26.283Z,0.63
2018-02-25T10:49:26.279Z,0.73
2018-02-25T10:50:26.271Z,0.78
2018-02-25T10:51:26.273Z,0.94
2018-02-25T10:52:26.269Z,1.17
2018-02-25T10:53:26.261Z,1.13
2018-02-25T10:54:26.247Z,1.02
2018-02-25T10:55:26.242Z,0.81
2018-02-25T10:56:26.254Z,0.69
2018-02-25T10:57:26.229Z,0.59
2018-02-25T10:58:26.219Z,0.49
2018-02-25T10:59:26.218Z,0.59
2018-02-25T11:00:26.204Z,0.62
2018-02-25T11:01:26.215Z,0.73
2018-02-25T11:02:26.194Z,0.87
2018-02-25T11:03:26.213Z,0.74
2018-02-25T11:04:26.180Z,0.40
2018-02-25T11:05:26.674Z,0.44
2018-02-25T11:06:26.166Z,0.31
2018-02-25T11:07:26.175Z,0.10
2018-02-25T11:08:26.171Z,0.10
2018-02-25T11:09:26.147Z,0.16
2018-02-25T11:10:26.147Z,0.55
2018-02-25T11:11:26.137Z,0.46
2018-02-25T11:12:26.127Z,0.60
2018-02-25T11:13:26.129Z,0.59
2018-02-25T11:14:26.125Z,0.73
2018-02-25T11:15:26.190Z,0.60
2018-02-25T11:16:26.099Z,0.47
2018-02-25T11:17:26.096Z,0.56
2018-02-25T11:18:26.116Z,0.52
2018-02-25T11:19:26.084Z,0.58
2018-02-25T11:20:26.073Z,0.80
2018-02-25T11:21:26.065Z,1.17
2018-02-25T11:22:26.060Z,1.26
2018-02-25T11:23:26.050Z,1.06
2018-02-25T11:24:26.051Z,0.91
2018-02-25T11:25:26.045Z,0.95
2018-02-25T11:26:26.035Z,0.88
2018-02-25T11:27:26.024Z,0.86
2018-02-25T11:28:26.015Z,0.99
2018-02-25T11:29:26.010Z,1.04
2018-02-25T11:30:26.005Z,1.10
2018-02-25T11:31:26.088Z,1.32
2018-02-25T11:32:25.984Z,1.48
2018-02-25T11:33:25.975Z,1.22
2018-02-25T11:34:25.970Z,1.30
2018-02-25T11:35:25.963Z,1.40
2018-02-25T11:36:25.966Z,1.23
2018-02-25T11:37:25.982Z,0.73
2018-02-25T11:38:25.953Z,0.70
2018-02-25T11:39:25.954Z,0.86
2018-02-25T11:40:25.992Z,0.88
2018-02-25T11:41:25.940Z,1.10
2018-02-25T11:42:25.969Z,1.04
2018-02-25T11:43:25.904Z,0.94
2018-02-25T11:44:25.904Z,0.95
2018-02-25T11:45:25.908Z,0.99
2018-02-25T11:46:25.917Z,0.81
2018-02-25T11:47:25.887Z,0.83
2018-02-25T11:48:25.899Z,0.80
2018-02-25T11:49:25.866Z,1.08
2018-02-25T11:50:25.868Z,1.10
2018-02-25T11:51:25.846Z,1.10
2018-02-25T11:52:25.863Z,1.13
2018-02-25T11:53:25.868Z,1.01
2018-02-25T11:54:25.826Z,1.01
2018-02-25T11:55:25.870Z,1.05
2018-02-25T11:56:25.809Z,0.98
2018-02-25T11:57:25.832Z,0.77
2018-02-25T11:58:25.800Z,0.78
2018-02-25T11:59:25.814Z,0.74
2018-02-25T12:00:25.829Z,0.76
2018-02-25T12:01:25.781Z,0.84
2018-02-25T12:02:25.789Z,1.08
2018-02-25T12:03:25.783Z,1.26
2018-02-25T12:04:25.753Z,1.42
2018-02-25T12:05:25.747Z,1.38
2018-02-25T12:06:25.742Z,1.49
2018-02-25T12:07:25.733Z,1.44
2018-02-25T12:08:25.721Z,1.48
2018-02-25T12:09:25.721Z,1.26
2018-02-25T12:10:25.758Z,1.28
2018-02-25T12:11:25.705Z,1.48
2018-02-25T12:12:25.687Z,1.28
2018-02-25T12:13:25.696Z,1.06
2018-02-25T12:14:25.707Z,1.14
2018-02-25T12:15:25.668Z,1.13
2018-02-25T12:16:25.659Z,1.10
2018-02-25T12:17:25.649Z,1.13
2018-02-25T12:18:25.718Z,1.32
2018-02-25T12:19:25.651Z,1.68
2018-02-25T12:20:25.633Z,1.76
2018-02-25T12:21:25.621Z,1.73
2018-02-25T12:22:25.616Z,1.95
2018-02-25T12:23:25.704Z,1.99
2018-02-25T12:24:25.620Z,1.87
2018-02-25T12:25:25.594Z,1.89
2018-02-25T12:26:25.589Z,1.89
2018-02-25T12:27:25.578Z,2.07
2018-02-25T12:28:25.568Z,1.91
2018-02-25T12:29:25.582Z,2.00
2018-02-25T12:30:25.556Z,1.94
2018-02-25T12:31:25.614Z,1.85
2018-02-25T12:32:25.539Z,1.74
2018-02-25T12:33:25.623Z,1.63
2018-02-25T12:34:25.544Z,1.67
2018-02-25T12:35:25.547Z,1.66
2018-02-25T12:36:25.544Z,1.74
2018-02-25T12:37:25.552Z,1.62
2018-02-25T12:38:25.507Z,1.41
2018-02-25T12:39:25.528Z,1.32
2018-02-25T12:40:25.581Z,1.32
2018-02-25T12:41:25.483Z,1.02
2018-02-25T12:42:25.478Z,1.26
2018-02-25T12:43:25.466Z,1.48
2018-02-25T12:44:25.477Z,1.31
2018-02-25T12:45:25.453Z,1.44
2018-02-25T12:46:25.463Z,1.63
2018-02-25T12:47:25.444Z,1.62
2018-02-25T12:48:25.435Z,1.38
2018-02-25T12:49:25.429Z,1.22
2018-02-25T12:50:25.436Z,1.30
2018-02-25T12:51:25.432Z,1.32
2018-02-25T12:52:25.426Z,1.42
2018-02-25T12:53:25.398Z,1.22
2018-02-25T12:54:25.422Z,1.13
2018-02-25T12:55:25.461Z,0.96
2018-02-25T12:56:25.372Z,0.98
2018-02-25T12:57:25.365Z,1.19
2018-02-25T12:58:25.361Z,1.30
2018-02-25T12:59:25.372Z,1.53
2018-02-25T13:00:25.349Z,1.59